sensor_id;sensor_type;location;lat;lon;timestamp;P1;durP1;ratioP1;P2;durP2;ratioP2
27558;SDS011;15002;52.028;5.670;2024-01-15T00:00:55;7.43;;;1.40;;
27558;SDS011;15002;52.028;5.670;2024-01-15T00:03:20;7.20;;;0.90;;
27558;SDS011;15002;52.028;5.670;2024-01-15T00:05:46;6.38;;;1.63;;
27558;SDS011;15002;52.028;5.670;2024-01-15T00:08:12;6.53;;;1.48;;
27558;SDS011;15002;52.028;5.670;2024-01-15T00:10:37;6.03;;;1.30;;
27558;SDS011;15002;52.028;5.670;2024-01-15T00:13:05;2.08;;;0.80;;
27558;SDS011;15002;52.028;5.670;2024-01-15T00:15:31;7.57;;;1.02;;
27558;SDS011;15002;52.028;5.670;2024-01-15T00:17:56;5.22;;;1.05;;
27558;SDS011;15002;52.028;5.670;2024-01-15T00:20:22;6.97;;;2.03;;
27558;SDS011;15002;52.028;5.670;2024-01-15T00:22:47;5.35;;;1.35;;
27558;SDS011;15002;52.028;5.670;2024-01-15T00:25:13;7.30;;;1.15;;
27558;SDS011;15002;52.028;5.670;2024-01-15T00:27:39;8.77;;;1.70;;
27558;SDS011;15002;52.028;5.670;2024-01-15T00:30:04;4.63;;;1.10;;
27558;SDS011;15002;52.028;5.670;2024-01-15T00:32:30;8.65;;;1.38;;
27558;SDS011;15002;52.028;5.670;2024-01-15T00:34:56;7.03;;;1.30;;
27558;SDS011;15002;52.028;5.670;2024-01-15T00:37:22;5.93;;;1.25;;
27558;SDS011;15002;52.028;5.670;2024-01-15T00:39:47;7.15;;;1.90;;
27558;SDS011;15002;52.028;5.670;2024-01-15T00:42:13;3.80;;;0.93;;
27558;SDS011;15002;52.028;5.670;2024-01-15T00:44:39;6.35;;;1.40;;
27558;SDS011;15002;52.028;5.670;2024-01-15T00:47:04;7.65;;;1.40;;
27558;SDS011;15002;52.028;5.670;2024-01-15T00:49:30;6.53;;;1.10;;
27558;SDS011;15002;52.028;5.670;2024-01-15T00:51:56;5.55;;;1.52;;
27558;SDS011;15002;52.028;5.670;2024-01-15T00:54:21;9.93;;;1.20;;
27558;SDS011;15002;52.028;5.670;2024-01-15T00:56:47;10.27;;;1.30;;
27558;SDS011;15002;52.028;5.670;2024-01-15T00:59:12;7.38;;;1.23;;
27558;SDS011;15002;52.028;5.670;2024-01-15T01:01:40;4.43;;;1.33;;
27558;SDS011;15002;52.028;5.670;2024-01-15T01:04:08;8.45;;;1.35;;
27558;SDS011;15002;52.028;5.670;2024-01-15T01:06:34;6.70;;;1.50;;
27558;SDS011;15002;52.028;5.670;2024-01-15T01:09:00;15.38;;;1.70;;
27558;SDS011;15002;52.028;5.670;2024-01-15T01:11:26;6.35;;;1.25;;
27558;SDS011;15002;52.028;5.670;2024-01-15T01:13:51;5.85;;;1.55;;
27558;SDS011;15002;52.028;5.670;2024-01-15T01:16:17;8.63;;;1.80;;
27558;SDS011;15002;52.028;5.670;2024-01-15T01:18:42;6.82;;;1.20;;
27558;SDS011;15002;52.028;5.670;2024-01-15T01:21:08;6.70;;;0.80;;
27558;SDS011;15002;52.028;5.670;2024-01-15T01:23:34;4.03;;;1.45;;
27558;SDS011;15002;52.028;5.670;2024-01-15T01:25:59;11.13;;;1.70;;
27558;SDS011;15002;52.028;5.670;2024-01-15T01:28:25;5.97;;;1.17;;
27558;SDS011;15002;52.028;5.670;2024-01-15T01:30:50;4.00;;;1.27;;
27558;SDS011;15002;52.028;5.670;2024-01-15T01:33:16;6.07;;;1.00;;
27558;SDS011;15002;52.028;5.670;2024-01-15T01:35:41;6.50;;;1.30;;
27558;SDS011;15002;52.028;5.670;2024-01-15T01:38:08;6.88;;;1.15;;
27558;SDS011;15002;52.028;5.670;2024-01-15T01:40:34;10.25;;;1.27;;
27558;SDS011;15002;52.028;5.670;2024-01-15T01:42:59;11.35;;;1.23;;
27558;SDS011;15002;52.028;5.670;2024-01-15T01:45:25;10.13;;;1.10;;
27558;SDS011;15002;52.028;5.670;2024-01-15T01:47:50;11.85;;;1.30;;
27558;SDS011;15002;52.028;5.670;2024-01-15T01:50:16;11.32;;;1.73;;
27558;SDS011;15002;52.028;5.670;2024-01-15T01:52:42;4.80;;;1.17;;
27558;SDS011;15002;52.028;5.670;2024-01-15T01:55:08;8.93;;;1.13;;
27558;SDS011;15002;52.028;5.670;2024-01-15T01:57:35;11.30;;;2.20;;
27558;SDS011;15002;52.028;5.670;2024-01-15T02:00:02;7.65;;;1.20;;
27558;SDS011;15002;52.028;5.670;2024-01-15T02:02:29;7.65;;;1.40;;
27558;SDS011;15002;52.028;5.670;2024-01-15T02:04:56;9.38;;;1.30;;
27558;SDS011;15002;52.028;5.670;2024-01-15T02:07:21;5.65;;;1.05;;
27558;SDS011;15002;52.028;5.670;2024-01-15T02:09:49;9.30;;;1.42;;
27558;SDS011;15002;52.028;5.670;2024-01-15T02:12:15;8.27;;;1.33;;
27558;SDS011;15002;52.028;5.670;2024-01-15T02:14:40;6.78;;;1.73;;
27558;SDS011;15002;52.028;5.670;2024-01-15T02:17:06;8.25;;;1.52;;
27558;SDS011;15002;52.028;5.670;2024-01-15T02:19:32;5.78;;;1.38;;
27558;SDS011;15002;52.028;5.670;2024-01-15T02:21:57;9.35;;;1.40;;
27558;SDS011;15002;52.028;5.670;2024-01-15T02:24:23;8.27;;;1.77;;
27558;SDS011;15002;52.028;5.670;2024-01-15T02:26:49;5.18;;;1.25;;
27558;SDS011;15002;52.028;5.670;2024-01-15T02:29:15;5.78;;;1.67;;
27558;SDS011;15002;52.028;5.670;2024-01-15T02:31:40;7.18;;;1.55;;
27558;SDS011;15002;52.028;5.670;2024-01-15T02:34:06;8.80;;;1.48;;
27558;SDS011;15002;52.028;5.670;2024-01-15T02:36:32;9.07;;;2.13;;
27558;SDS011;15002;52.028;5.670;2024-01-15T02:38:57;11.05;;;1.90;;
27558;SDS011;15002;52.028;5.670;2024-01-15T02:41:23;11.57;;;1.70;;
27558;SDS011;15002;52.028;5.670;2024-01-15T02:43:48;6.75;;;1.10;;
27558;SDS011;15002;52.028;5.670;2024-01-15T02:46:14;9.15;;;1.10;;
27558;SDS011;15002;52.028;5.670;2024-01-15T02:48:41;5.30;;;1.13;;
27558;SDS011;15002;52.028;5.670;2024-01-15T02:51:06;8.70;;;1.35;;
27558;SDS011;15002;52.028;5.670;2024-01-15T02:53:32;8.82;;;1.10;;
27558;SDS011;15002;52.028;5.670;2024-01-15T02:55:58;8.88;;;1.20;;
27558;SDS011;15002;52.028;5.670;2024-01-15T02:58:23;8.20;;;1.17;;
27558;SDS011;15002;52.028;5.670;2024-01-15T03:00:49;4.90;;;1.10;;
27558;SDS011;15002;52.028;5.670;2024-01-15T03:03:14;7.80;;;1.38;;
27558;SDS011;15002;52.028;5.670;2024-01-15T03:05:40;13.23;;;1.27;;
27558;SDS011;15002;52.028;5.670;2024-01-15T03:08:06;8.73;;;1.42;;
27558;SDS011;15002;52.028;5.670;2024-01-15T03:10:31;10.05;;;1.67;;
27558;SDS011;15002;52.028;5.670;2024-01-15T03:12:57;6.40;;;0.98;;
27558;SDS011;15002;52.028;5.670;2024-01-15T03:15:22;6.10;;;1.02;;
27558;SDS011;15002;52.028;5.670;2024-01-15T03:17:48;11.13;;;1.17;;
27558;SDS011;15002;52.028;5.670;2024-01-15T03:20:14;3.58;;;0.73;;
27558;SDS011;15002;52.028;5.670;2024-01-15T03:22:39;8.13;;;0.90;;
27558;SDS011;15002;52.028;5.670;2024-01-15T03:25:05;4.65;;;0.73;;
27558;SDS011;15002;52.028;5.670;2024-01-15T03:27:31;3.88;;;1.02;;
27558;SDS011;15002;52.028;5.670;2024-01-15T03:29:57;6.18;;;1.15;;
27558;SDS011;15002;52.028;5.670;2024-01-15T03:32:23;4.57;;;1.10;;
27558;SDS011;15002;52.028;5.670;2024-01-15T03:34:48;3.20;;;0.80;;
27558;SDS011;15002;52.028;5.670;2024-01-15T03:37:14;6.50;;;0.75;;
27558;SDS011;15002;52.028;5.670;2024-01-15T03:39:40;4.78;;;0.75;;
27558;SDS011;15002;52.028;5.670;2024-01-15T03:42:06;2.92;;;1.05;;
27558;SDS011;15002;52.028;5.670;2024-01-15T03:44:31;7.93;;;0.98;;
27558;SDS011;15002;52.028;5.670;2024-01-15T03:46:57;7.68;;;1.15;;
27558;SDS011;15002;52.028;5.670;2024-01-15T03:49:23;4.18;;;1.15;;
27558;SDS011;15002;52.028;5.670;2024-01-15T03:51:49;5.97;;;1.10;;
27558;SDS011;15002;52.028;5.670;2024-01-15T03:54:14;4.25;;;0.85;;
27558;SDS011;15002;52.028;5.670;2024-01-15T03:56:40;8.30;;;1.50;;
27558;SDS011;15002;52.028;5.670;2024-01-15T03:59:06;7.00;;;1.42;;
27558;SDS011;15002;52.028;5.670;2024-01-15T04:01:31;6.85;;;1.08;;
27558;SDS011;15002;52.028;5.670;2024-01-15T04:03:57;6.15;;;1.00;;
27558;SDS011;15002;52.028;5.670;2024-01-15T04:06:22;9.73;;;1.33;;
27558;SDS011;15002;52.028;5.670;2024-01-15T04:08:48;8.50;;;1.33;;
27558;SDS011;15002;52.028;5.670;2024-01-15T04:11:14;2.72;;;0.98;;
27558;SDS011;15002;52.028;5.670;2024-01-15T04:13:39;6.53;;;0.98;;
27558;SDS011;15002;52.028;5.670;2024-01-15T04:16:05;4.60;;;0.82;;
27558;SDS011;15002;52.028;5.670;2024-01-15T04:18:30;3.47;;;0.85;;
27558;SDS011;15002;52.028;5.670;2024-01-15T04:20:56;7.00;;;0.93;;
27558;SDS011;15002;52.028;5.670;2024-01-15T04:23:22;5.18;;;0.93;;
27558;SDS011;15002;52.028;5.670;2024-01-15T04:25:47;3.75;;;0.70;;
27558;SDS011;15002;52.028;5.670;2024-01-15T04:28:13;4.30;;;0.85;;
27558;SDS011;15002;52.028;5.670;2024-01-15T04:30:38;7.97;;;1.10;;
27558;SDS011;15002;52.028;5.670;2024-01-15T04:33:04;4.70;;;0.73;;
27558;SDS011;15002;52.028;5.670;2024-01-15T04:35:30;4.32;;;1.00;;
27558;SDS011;15002;52.028;5.670;2024-01-15T04:37:56;4.25;;;0.95;;
27558;SDS011;15002;52.028;5.670;2024-01-15T04:40:22;4.45;;;0.95;;
27558;SDS011;15002;52.028;5.670;2024-01-15T04:42:47;4.68;;;0.90;;
27558;SDS011;15002;52.028;5.670;2024-01-15T04:45:13;7.70;;;1.10;;
27558;SDS011;15002;52.028;5.670;2024-01-15T04:47:39;7.30;;;1.35;;
27558;SDS011;15002;52.028;5.670;2024-01-15T04:50:05;4.85;;;1.02;;
27558;SDS011;15002;52.028;5.670;2024-01-15T04:52:31;5.35;;;1.20;;
27558;SDS011;15002;52.028;5.670;2024-01-15T04:54:57;7.22;;;1.55;;
27558;SDS011;15002;52.028;5.670;2024-01-15T04:57:23;8.05;;;1.50;;
27558;SDS011;15002;52.028;5.670;2024-01-15T04:59:48;6.43;;;1.52;;
27558;SDS011;15002;52.028;5.670;2024-01-15T05:02:14;8.88;;;1.50;;
27558;SDS011;15002;52.028;5.670;2024-01-15T05:04:39;7.25;;;1.95;;
27558;SDS011;15002;52.028;5.670;2024-01-15T05:07:05;5.90;;;1.10;;
27558;SDS011;15002;52.028;5.670;2024-01-15T05:09:31;9.30;;;1.00;;
27558;SDS011;15002;52.028;5.670;2024-01-15T05:11:56;7.15;;;1.35;;
27558;SDS011;15002;52.028;5.670;2024-01-15T05:14:22;5.85;;;1.08;;
27558;SDS011;15002;52.028;5.670;2024-01-15T05:16:48;6.95;;;1.42;;
27558;SDS011;15002;52.028;5.670;2024-01-15T05:19:14;6.00;;;1.40;;
27558;SDS011;15002;52.028;5.670;2024-01-15T05:21:40;10.18;;;1.55;;
27558;SDS011;15002;52.028;5.670;2024-01-15T05:24:05;7.07;;;0.93;;
27558;SDS011;15002;52.028;5.670;2024-01-15T05:26:32;4.60;;;1.05;;
27558;SDS011;15002;52.028;5.670;2024-01-15T05:28:58;2.72;;;1.05;;
27558;SDS011;15002;52.028;5.670;2024-01-15T05:31:24;6.68;;;0.90;;
27558;SDS011;15002;52.028;5.670;2024-01-15T05:33:50;2.65;;;0.63;;
27558;SDS011;15002;52.028;5.670;2024-01-15T05:36:15;7.10;;;1.33;;
27558;SDS011;15002;52.028;5.670;2024-01-15T05:38:41;8.75;;;1.23;;
27558;SDS011;15002;52.028;5.670;2024-01-15T05:41:07;5.75;;;1.15;;
27558;SDS011;15002;52.028;5.670;2024-01-15T05:43:32;3.42;;;1.45;;
27558;SDS011;15002;52.028;5.670;2024-01-15T05:45:58;4.18;;;1.23;;
27558;SDS011;15002;52.028;5.670;2024-01-15T05:48:23;6.78;;;1.42;;
27558;SDS011;15002;52.028;5.670;2024-01-15T05:50:49;5.18;;;1.15;;
27558;SDS011;15002;52.028;5.670;2024-01-15T05:53:15;6.63;;;1.33;;
27558;SDS011;15002;52.028;5.670;2024-01-15T05:55:40;4.25;;;1.30;;
27558;SDS011;15002;52.028;5.670;2024-01-15T05:58:06;6.15;;;2.00;;
27558;SDS011;15002;52.028;5.670;2024-01-15T06:00:32;6.90;;;1.70;;
27558;SDS011;15002;52.028;5.670;2024-01-15T06:02:59;6.07;;;1.60;;
27558;SDS011;15002;52.028;5.670;2024-01-15T06:05:25;5.43;;;1.30;;
27558;SDS011;15002;52.028;5.670;2024-01-15T06:07:50;5.63;;;1.45;;
27558;SDS011;15002;52.028;5.670;2024-01-15T06:10:16;4.80;;;1.13;;
27558;SDS011;15002;52.028;5.670;2024-01-15T06:12:43;2.42;;;1.10;;
27558;SDS011;15002;52.028;5.670;2024-01-15T06:15:09;4.72;;;1.52;;
27558;SDS011;15002;52.028;5.670;2024-01-15T06:17:34;6.97;;;1.83;;
27558;SDS011;15002;52.028;5.670;2024-01-15T06:20:00;10.57;;;1.77;;
27558;SDS011;15002;52.028;5.670;2024-01-15T06:22:26;2.72;;;1.30;;
27558;SDS011;15002;52.028;5.670;2024-01-15T06:24:51;5.80;;;1.77;;
27558;SDS011;15002;52.028;5.670;2024-01-15T06:27:17;9.55;;;1.48;;
27558;SDS011;15002;52.028;5.670;2024-01-15T06:29:44;6.55;;;1.70;;
27558;SDS011;15002;52.028;5.670;2024-01-15T06:32:12;7.93;;;2.08;;
27558;SDS011;15002;52.028;5.670;2024-01-15T06:34:37;6.68;;;1.70;;
27558;SDS011;15002;52.028;5.670;2024-01-15T06:37:03;6.88;;;1.83;;
27558;SDS011;15002;52.028;5.670;2024-01-15T06:39:29;5.05;;;2.00;;
27558;SDS011;15002;52.028;5.670;2024-01-15T06:41:54;5.65;;;1.55;;
27558;SDS011;15002;52.028;5.670;2024-01-15T06:44:20;7.93;;;2.70;;
27558;SDS011;15002;52.028;5.670;2024-01-15T06:46:46;4.70;;;1.73;;
27558;SDS011;15002;52.028;5.670;2024-01-15T06:49:13;4.97;;;1.90;;
27558;SDS011;15002;52.028;5.670;2024-01-15T06:51:39;5.15;;;2.05;;
27558;SDS011;15002;52.028;5.670;2024-01-15T06:54:05;5.97;;;1.90;;
27558;SDS011;15002;52.028;5.670;2024-01-15T06:56:31;5.07;;;2.10;;
27558;SDS011;15002;52.028;5.670;2024-01-15T06:58:57;5.55;;;2.45;;
27558;SDS011;15002;52.028;5.670;2024-01-15T07:01:23;3.45;;;1.88;;
27558;SDS011;15002;52.028;5.670;2024-01-15T07:03:48;7.18;;;2.63;;
27558;SDS011;15002;52.028;5.670;2024-01-15T07:06:14;5.43;;;2.25;;
27558;SDS011;15002;52.028;5.670;2024-01-15T07:08:40;4.45;;;2.40;;
27558;SDS011;15002;52.028;5.670;2024-01-15T07:11:06;5.30;;;2.75;;
27558;SDS011;15002;52.028;5.670;2024-01-15T07:13:33;8.20;;;2.80;;
27558;SDS011;15002;52.028;5.670;2024-01-15T07:15:59;5.07;;;2.55;;
27558;SDS011;15002;52.028;5.670;2024-01-15T07:18:25;4.70;;;2.80;;
27558;SDS011;15002;52.028;5.670;2024-01-15T07:20:50;4.63;;;2.50;;
27558;SDS011;15002;52.028;5.670;2024-01-15T07:23:16;4.45;;;2.60;;
27558;SDS011;15002;52.028;5.670;2024-01-15T07:25:42;3.63;;;2.35;;
27558;SDS011;15002;52.028;5.670;2024-01-15T07:28:08;4.90;;;2.58;;
27558;SDS011;15002;52.028;5.670;2024-01-15T07:30:34;3.00;;;2.42;;
27558;SDS011;15002;52.028;5.670;2024-01-15T07:33:00;5.88;;;2.90;;
27558;SDS011;15002;52.028;5.670;2024-01-15T07:35:26;5.40;;;2.80;;
27558;SDS011;15002;52.028;5.670;2024-01-15T07:37:51;3.38;;;2.42;;
27558;SDS011;15002;52.028;5.670;2024-01-15T07:40:17;5.18;;;2.58;;
27558;SDS011;15002;52.028;5.670;2024-01-15T07:42:43;4.05;;;3.13;;
27558;SDS011;15002;52.028;5.670;2024-01-15T07:45:09;5.35;;;3.63;;
27558;SDS011;15002;52.028;5.670;2024-01-15T07:47:35;5.22;;;3.40;;
27558;SDS011;15002;52.028;5.670;2024-01-15T07:50:01;4.32;;;3.13;;
27558;SDS011;15002;52.028;5.670;2024-01-15T07:52:27;4.28;;;3.25;;
27558;SDS011;15002;52.028;5.670;2024-01-15T07:54:53;5.47;;;3.25;;
27558;SDS011;15002;52.028;5.670;2024-01-15T07:57:20;4.25;;;2.90;;
27558;SDS011;15002;52.028;5.670;2024-01-15T07:59:45;4.47;;;2.90;;
27558;SDS011;15002;52.028;5.670;2024-01-15T08:02:11;5.32;;;3.03;;
27558;SDS011;15002;52.028;5.670;2024-01-15T08:04:37;3.42;;;2.42;;
27558;SDS011;15002;52.028;5.670;2024-01-15T08:07:06;4.00;;;2.83;;
27558;SDS011;15002;52.028;5.670;2024-01-15T08:09:32;4.20;;;2.90;;
27558;SDS011;15002;52.028;5.670;2024-01-15T08:11:58;4.57;;;3.15;;
27558;SDS011;15002;52.028;5.670;2024-01-15T08:14:24;3.70;;;2.90;;
27558;SDS011;15002;52.028;5.670;2024-01-15T08:16:50;3.88;;;2.70;;
27558;SDS011;15002;52.028;5.670;2024-01-15T08:19:16;4.68;;;2.75;;
27558;SDS011;15002;52.028;5.670;2024-01-15T08:21:41;4.45;;;2.58;;
27558;SDS011;15002;52.028;5.670;2024-01-15T08:24:07;3.95;;;2.83;;
27558;SDS011;15002;52.028;5.670;2024-01-15T08:26:33;4.05;;;2.95;;
27558;SDS011;15002;52.028;5.670;2024-01-15T08:28:59;3.42;;;2.45;;
27558;SDS011;15002;52.028;5.670;2024-01-15T08:31:25;2.85;;;2.55;;
27558;SDS011;15002;52.028;5.670;2024-01-15T08:33:51;5.60;;;2.78;;
27558;SDS011;15002;52.028;5.670;2024-01-15T08:36:16;7.97;;;2.67;;
27558;SDS011;15002;52.028;5.670;2024-01-15T08:38:43;7.10;;;3.50;;
27558;SDS011;15002;52.028;5.670;2024-01-15T08:41:09;8.48;;;3.50;;
27558;SDS011;15002;52.028;5.670;2024-01-15T08:43:35;7.30;;;3.15;;
27558;SDS011;15002;52.028;5.670;2024-01-15T08:46:01;7.63;;;3.35;;
27558;SDS011;15002;52.028;5.670;2024-01-15T08:48:27;6.97;;;4.00;;
27558;SDS011;15002;52.028;5.670;2024-01-15T08:50:53;5.07;;;3.67;;
27558;SDS011;15002;52.028;5.670;2024-01-15T08:53:19;7.93;;;3.85;;
27558;SDS011;15002;52.028;5.670;2024-01-15T08:55:46;7.68;;;3.90;;
27558;SDS011;15002;52.028;5.670;2024-01-15T08:58:12;8.35;;;3.80;;
27558;SDS011;15002;52.028;5.670;2024-01-15T09:00:38;5.72;;;4.00;;
27558;SDS011;15002;52.028;5.670;2024-01-15T09:03:04;6.47;;;3.67;;
27558;SDS011;15002;52.028;5.670;2024-01-15T09:05:29;6.43;;;3.28;;
27558;SDS011;15002;52.028;5.670;2024-01-15T09:07:55;8.07;;;3.22;;
27558;SDS011;15002;52.028;5.670;2024-01-15T09:10:21;5.03;;;2.85;;
27558;SDS011;15002;52.028;5.670;2024-01-15T09:12:47;7.22;;;2.90;;
27558;SDS011;15002;52.028;5.670;2024-01-15T09:15:14;6.53;;;2.55;;
27558;SDS011;15002;52.028;5.670;2024-01-15T09:17:40;6.80;;;2.95;;
27558;SDS011;15002;52.028;5.670;2024-01-15T09:20:06;7.25;;;3.08;;
27558;SDS011;15002;52.028;5.670;2024-01-15T09:22:32;7.68;;;3.13;;
27558;SDS011;15002;52.028;5.670;2024-01-15T09:24:58;6.40;;;3.20;;
27558;SDS011;15002;52.028;5.670;2024-01-15T09:27:24;7.72;;;3.42;;
27558;SDS011;15002;52.028;5.670;2024-01-15T09:29:53;10.43;;;3.10;;
27558;SDS011;15002;52.028;5.670;2024-01-15T09:32:19;5.10;;;3.08;;
27558;SDS011;15002;52.028;5.670;2024-01-15T09:34:47;7.82;;;3.47;;
27558;SDS011;15002;52.028;5.670;2024-01-15T09:37:13;6.80;;;2.83;;
27558;SDS011;15002;52.028;5.670;2024-01-15T09:39:39;10.43;;;3.60;;
27558;SDS011;15002;52.028;5.670;2024-01-15T09:42:05;6.47;;;2.50;;
27558;SDS011;15002;52.028;5.670;2024-01-15T09:44:31;6.07;;;1.98;;
27558;SDS011;15002;52.028;5.670;2024-01-15T09:46:57;4.72;;;1.75;;
27558;SDS011;15002;52.028;5.670;2024-01-15T09:49:24;4.30;;;1.50;;
27558;SDS011;15002;52.028;5.670;2024-01-15T09:51:50;3.33;;;1.58;;
27558;SDS011;15002;52.028;5.670;2024-01-15T09:54:16;3.08;;;1.30;;
27558;SDS011;15002;52.028;5.670;2024-01-15T09:56:45;4.18;;;1.52;;
27558;SDS011;15002;52.028;5.670;2024-01-15T09:59:18;4.15;;;1.73;;
27558;SDS011;15002;52.028;5.670;2024-01-15T10:01:45;2.55;;;1.60;;
27558;SDS011;15002;52.028;5.670;2024-01-15T10:04:12;3.83;;;1.30;;
27558;SDS011;15002;52.028;5.670;2024-01-15T10:06:39;2.10;;;0.90;;
27558;SDS011;15002;52.028;5.670;2024-01-15T10:09:08;1.55;;;1.45;;
27558;SDS011;15002;52.028;5.670;2024-01-15T10:11:34;2.35;;;1.27;;
27558;SDS011;15002;52.028;5.670;2024-01-15T10:14:00;3.47;;;1.27;;
27558;SDS011;15002;52.028;5.670;2024-01-15T10:16:26;3.03;;;1.33;;
27558;SDS011;15002;52.028;5.670;2024-01-15T10:18:52;3.03;;;1.20;;
27558;SDS011;15002;52.028;5.670;2024-01-15T10:21:18;2.78;;;1.40;;
27558;SDS011;15002;52.028;5.670;2024-01-15T10:23:44;2.85;;;1.27;;
27558;SDS011;15002;52.028;5.670;2024-01-15T10:26:09;5.20;;;1.27;;
27558;SDS011;15002;52.028;5.670;2024-01-15T10:28:37;7.95;;;1.63;;
27558;SDS011;15002;52.028;5.670;2024-01-15T10:31:02;5.03;;;2.17;;
27558;SDS011;15002;52.028;5.670;2024-01-15T10:33:29;3.55;;;1.40;;
27558;SDS011;15002;52.028;5.670;2024-01-15T10:35:59;6.03;;;1.52;;
27558;SDS011;15002;52.028;5.670;2024-01-15T10:38:25;5.63;;;2.00;;
27558;SDS011;15002;52.028;5.670;2024-01-15T10:40:52;4.45;;;1.45;;
27558;SDS011;15002;52.028;5.670;2024-01-15T10:43:18;5.30;;;1.90;;
27558;SDS011;15002;52.028;5.670;2024-01-15T10:45:47;3.88;;;1.45;;
27558;SDS011;15002;52.028;5.670;2024-01-15T10:48:16;6.28;;;2.22;;
27558;SDS011;15002;52.028;5.670;2024-01-15T10:50:43;5.75;;;1.73;;
27558;SDS011;15002;52.028;5.670;2024-01-15T10:53:09;5.28;;;1.88;;
27558;SDS011;15002;52.028;5.670;2024-01-15T10:55:37;3.35;;;1.38;;
27558;SDS011;15002;52.028;5.670;2024-01-15T10:58:04;4.72;;;1.88;;
27558;SDS011;15002;52.028;5.670;2024-01-15T11:00:32;4.85;;;1.67;;
27558;SDS011;15002;52.028;5.670;2024-01-15T11:03:00;3.45;;;1.27;;
27558;SDS011;15002;52.028;5.670;2024-01-15T11:05:27;6.85;;;1.80;;
27558;SDS011;15002;52.028;5.670;2024-01-15T11:07:56;6.80;;;1.20;;
27558;SDS011;15002;52.028;5.670;2024-01-15T11:13:20;4.85;;;1.45;;
27558;SDS011;15002;52.028;5.670;2024-01-15T11:19:03;4.05;;;1.52;;
27558;SDS011;15002;52.028;5.670;2024-01-15T11:21:28;5.45;;;1.40;;
27558;SDS011;15002;52.028;5.670;2024-01-15T11:24:00;4.63;;;2.03;;
27558;SDS011;15002;52.028;5.670;2024-01-15T11:26:30;7.85;;;1.98;;
27558;SDS011;15002;52.028;5.670;2024-01-15T11:29:03;6.50;;;2.00;;
27558;SDS011;15002;52.028;5.670;2024-01-15T11:34:05;9.43;;;1.77;;
27558;SDS011;15002;52.028;5.670;2024-01-15T11:41:57;8.95;;;2.10;;
27558;SDS011;15002;52.028;5.670;2024-01-15T11:44:23;9.57;;;2.00;;
27558;SDS011;15002;52.028;5.670;2024-01-15T11:46:57;6.50;;;1.85;;
27558;SDS011;15002;52.028;5.670;2024-01-15T11:52:37;5.63;;;2.22;;
27558;SDS011;15002;52.028;5.670;2024-01-15T11:57:49;11.23;;;3.67;;
27558;SDS011;15002;52.028;5.670;2024-01-15T12:00:16;10.27;;;4.10;;
27558;SDS011;15002;52.028;5.670;2024-01-15T12:02:43;11.43;;;4.07;;
27558;SDS011;15002;52.028;5.670;2024-01-15T12:05:10;11.25;;;3.50;;
27558;SDS011;15002;52.028;5.670;2024-01-15T12:07:40;8.57;;;3.13;;
27558;SDS011;15002;52.028;5.670;2024-01-15T12:10:13;11.25;;;3.40;;
27558;SDS011;15002;52.028;5.670;2024-01-15T12:15:27;5.00;;;2.40;;
27558;SDS011;15002;52.028;5.670;2024-01-15T12:17:58;6.97;;;2.00;;
27558;SDS011;15002;52.028;5.670;2024-01-15T12:20:26;5.78;;;2.03;;
27558;SDS011;15002;52.028;5.670;2024-01-15T12:22:52;6.57;;;2.10;;
27558;SDS011;15002;52.028;5.670;2024-01-15T12:25:19;4.00;;;1.60;;
27558;SDS011;15002;52.028;5.670;2024-01-15T12:27:45;4.15;;;2.10;;
27558;SDS011;15002;52.028;5.670;2024-01-15T12:30:13;6.07;;;1.15;;
27558;SDS011;15002;52.028;5.670;2024-01-15T12:32:40;4.38;;;1.70;;
27558;SDS011;15002;52.028;5.670;2024-01-15T12:35:07;6.53;;;2.08;;
27558;SDS011;15002;52.028;5.670;2024-01-15T12:37:35;5.03;;;1.58;;
27558;SDS011;15002;52.028;5.670;2024-01-15T12:40:02;3.25;;;1.55;;
27558;SDS011;15002;52.028;5.670;2024-01-15T12:42:29;7.55;;;1.00;;
27558;SDS011;15002;52.028;5.670;2024-01-15T12:44:56;2.35;;;0.70;;
27558;SDS011;15002;52.028;5.670;2024-01-15T12:47:22;4.05;;;0.80;;
27558;SDS011;15002;52.028;5.670;2024-01-15T12:49:48;2.90;;;1.02;;
27558;SDS011;15002;52.028;5.670;2024-01-15T12:52:18;4.43;;;1.02;;
27558;SDS011;15002;52.028;5.670;2024-01-15T12:54:45;4.60;;;1.00;;
27558;SDS011;15002;52.028;5.670;2024-01-15T12:57:10;3.45;;;0.85;;
27558;SDS011;15002;52.028;5.670;2024-01-15T12:59:36;4.53;;;1.27;;
27558;SDS011;15002;52.028;5.670;2024-01-15T13:02:01;4.10;;;0.82;;
27558;SDS011;15002;52.028;5.670;2024-01-15T13:04:28;6.18;;;1.60;;
27558;SDS011;15002;52.028;5.670;2024-01-15T13:06:54;7.45;;;1.30;;
27558;SDS011;15002;52.028;5.670;2024-01-15T13:09:20;7.63;;;1.13;;
27558;SDS011;15002;52.028;5.670;2024-01-15T13:11:45;2.22;;;0.90;;
27558;SDS011;15002;52.028;5.670;2024-01-15T13:14:12;4.22;;;0.98;;
27558;SDS011;15002;52.028;5.670;2024-01-15T13:16:41;4.47;;;1.33;;
27558;SDS011;15002;52.028;5.670;2024-01-15T13:19:10;5.18;;;1.98;;
27558;SDS011;15002;52.028;5.670;2024-01-15T13:21:37;10.95;;;2.40;;
27558;SDS011;15002;52.028;5.670;2024-01-15T13:24:03;4.90;;;2.03;;
27558;SDS011;15002;52.028;5.670;2024-01-15T13:26:30;3.50;;;1.77;;
27558;SDS011;15002;52.028;5.670;2024-01-15T13:29:00;7.68;;;1.70;;
27558;SDS011;15002;52.028;5.670;2024-01-15T13:31:26;5.13;;;2.28;;
27558;SDS011;15002;52.028;5.670;2024-01-15T13:33:52;6.40;;;2.40;;
27558;SDS011;15002;52.028;5.670;2024-01-15T13:36:18;6.10;;;2.22;;
27558;SDS011;15002;52.028;5.670;2024-01-15T13:38:46;10.30;;;2.40;;
27558;SDS011;15002;52.028;5.670;2024-01-15T13:41:12;8.18;;;2.60;;
27558;SDS011;15002;52.028;5.670;2024-01-15T13:43:37;8.13;;;1.30;;
27558;SDS011;15002;52.028;5.670;2024-01-15T13:46:03;6.53;;;1.10;;
27558;SDS011;15002;52.028;5.670;2024-01-15T13:48:30;6.03;;;1.38;;
27558;SDS011;15002;52.028;5.670;2024-01-15T13:50:56;6.60;;;1.02;;
27558;SDS011;15002;52.028;5.670;2024-01-15T13:53:23;6.32;;;1.77;;
27558;SDS011;15002;52.028;5.670;2024-01-15T13:55:48;5.78;;;1.60;;
27558;SDS011;15002;52.028;5.670;2024-01-15T13:58:14;11.48;;;1.52;;
27558;SDS011;15002;52.028;5.670;2024-01-15T14:00:39;11.25;;;1.70;;
27558;SDS011;15002;52.028;5.670;2024-01-15T14:03:05;6.43;;;1.35;;
27558;SDS011;15002;52.028;5.670;2024-01-15T14:05:30;6.18;;;1.35;;
27558;SDS011;15002;52.028;5.670;2024-01-15T14:07:56;4.20;;;1.30;;
27558;SDS011;15002;52.028;5.670;2024-01-15T14:10:22;6.65;;;1.52;;
27558;SDS011;15002;52.028;5.670;2024-01-15T14:12:47;14.50;;;1.83;;
27558;SDS011;15002;52.028;5.670;2024-01-15T14:15:13;6.70;;;1.50;;
27558;SDS011;15002;52.028;5.670;2024-01-15T14:17:39;6.82;;;2.08;;
27558;SDS011;15002;52.028;5.670;2024-01-15T14:20:05;3.95;;;1.27;;
27558;SDS011;15002;52.028;5.670;2024-01-15T14:22:31;5.35;;;1.23;;
27558;SDS011;15002;52.028;5.670;2024-01-15T14:24:57;5.97;;;1.58;;
27558;SDS011;15002;52.028;5.670;2024-01-15T14:27:22;7.05;;;1.88;;
27558;SDS011;15002;52.028;5.670;2024-01-15T14:29:48;7.72;;;2.50;;
27558;SDS011;15002;52.028;5.670;2024-01-15T14:32:14;7.97;;;2.47;;
27558;SDS011;15002;52.028;5.670;2024-01-15T14:34:39;9.73;;;1.80;;
27558;SDS011;15002;52.028;5.670;2024-01-15T14:37:05;5.15;;;1.13;;
27558;SDS011;15002;52.028;5.670;2024-01-15T14:39:31;7.95;;;2.20;;
27558;SDS011;15002;52.028;5.670;2024-01-15T14:41:59;7.03;;;1.58;;
27558;SDS011;15002;52.028;5.670;2024-01-15T14:44:25;6.93;;;1.50;;
27558;SDS011;15002;52.028;5.670;2024-01-15T14:46:51;4.82;;;1.65;;
27558;SDS011;15002;52.028;5.670;2024-01-15T14:49:16;9.25;;;1.95;;
27558;SDS011;15002;52.028;5.670;2024-01-15T14:51:43;9.02;;;2.00;;
27558;SDS011;15002;52.028;5.670;2024-01-15T14:54:09;4.53;;;1.90;;
27558;SDS011;15002;52.028;5.670;2024-01-15T14:56:35;6.28;;;1.50;;
27558;SDS011;15002;52.028;5.670;2024-01-15T14:59:01;9.80;;;1.75;;
27558;SDS011;15002;52.028;5.670;2024-01-15T15:01:26;3.53;;;1.40;;